Time;durP1;ratioP1;P1;durP2;ratioP2;P2;SDS_P1;SDS_P2;PMS_P1;PMS_P2;Temp;Humidity;BMP_temperature;BMP_pressure;BME280_temperature;BME280_humidity;BME280_pressure;Samples;Min_cycle;Max_cycle;Signal;HPM_P1;HPM_P2
2021/10/12 00:01:27;;;;;;;15.83;10.77;;;;;;;5.07;70.58;99739.24;1733566;80;21115;-56
2021/10/12 00:03:53;;;;;;;18.90;10.20;;;;;;;5.06;70.59;99729.48;1734079;80;21456;-56
2021/10/12 00:06:20;;;;;;;17.73;9.97;;;;;;;5.07;70.58;99731.70;1732061;80;21442;-56
2021/10/12 00:08:47;;;;;;;20.50;9.60;;;;;;;5.07;70.57;99732.57;1735091;80;22688;-56
2021/10/12 00:11:15;;;;;;;17.60;10.40;;;;;;;5.07;70.57;99730.36;1732933;80;21089;-56
2021/10/12 00:13:42;;;;;;;23.20;12.13;;;;;;;5.07;70.57;99723.69;1736471;80;21129;-56
2021/10/12 00:16:09;;;;;;;21.63;13.87;;;;;;;5.05;70.62;99723.72;1734907;80;21097;-56
2021/10/12 00:18:36;;;;;;;23.50;13.83;;;;;;;5.05;70.67;99722.84;1740696;80;21099;-56
2021/10/12 00:21:02;;;;;;;22.27;13.37;;;;;;;5.04;70.67;99724.64;1736413;81;23316;-56
2021/10/12 00:23:28;;;;;;;23.77;14.90;;;;;;;5.04;70.58;99720.63;1736938;81;21130;-56
2021/10/12 00:25:55;;;;;;;21.67;14.70;;;;;;;5.03;70.57;99721.55;1733050;80;21407;-56
2021/10/12 00:28:21;;;;;;;19.60;13.67;;;;;;;5.01;70.60;99718.06;1732744;80;21983;-56
2021/10/12 00:30:48;;;;;;;22.30;15.80;;;;;;;4.98;70.61;99711.47;1733208;81;21081;-56
2021/10/12 00:33:14;;;;;;;26.07;17.90;;;;;;;4.95;70.60;99716.88;1737235;80;21497;-56
2021/10/12 00:35:40;;;;;;;28.63;15.80;;;;;;;4.92;70.69;99716.97;1732559;80;21088;-56
2021/10/12 00:38:08;;;;;;;24.87;14.67;;;;;;;4.89;70.75;99715.25;1732268;80;21056;-56
2021/10/12 00:40:37;;;;;;;34.97;15.27;;;;;;;4.87;70.79;99710.86;1733067;80;21011;-56
2021/10/12 00:43:04;;;;;;;23.33;14.33;;;;;;;4.87;70.84;99718.86;1736280;80;20915;-56
2021/10/12 00:45:31;;;;;;;21.27;13.70;;;;;;;4.86;70.91;99711.77;1732675;80;21111;-56
2021/10/12 00:48:04;;;;;;;22.50;14.53;;;;;;;4.87;70.98;99698.86;1726298;80;22345;-55
2021/10/12 00:50:32;;;;;;;19.47;13.03;;;;;;;4.86;70.96;99702.44;1726069;80;21328;-56
2021/10/12 00:52:59;;;;;;;22.93;14.70;;;;;;;4.85;71.00;99702.89;1727971;81;21065;-55
2021/10/12 00:55:26;;;;;;;22.90;15.10;;;;;;;4.85;71.01;99690.02;1727670;80;21077;-55
2021/10/12 00:57:53;;;;;;;25.07;15.07;;;;;;;4.85;71.03;99698.02;1724621;80;22308;-55
2021/10/12 01:00:19;;;;;;;25.97;14.90;;;;;;;4.85;71.03;99690.89;1727760;81;21043;-55
2021/10/12 01:02:46;;;;;;;26.17;16.57;;;;;;;4.86;71.02;99687.77;1726758;80;21144;-55
2021/10/12 01:05:12;;;;;;;29.17;17.60;;;;;;;4.85;71.06;99687.34;1724179;81;21793;-55
2021/10/12 01:07:40;;;;;;;40.60;18.97;;;;;;;4.83;71.09;99679.88;1726022;80;21049;-55
2021/10/12 01:10:07;;;;;;;29.50;16.93;;;;;;;4.82;71.14;99679.45;1725353;81;21164;-54
2021/10/12 01:12:36;;;;;;;32.20;19.40;;;;;;;4.79;71.22;99682.19;1735475;81;21100;-55
2021/10/12 01:15:07;;;;;;;26.77;15.80;;;;;;;4.76;71.31;99683.16;1723062;80;21540;-55
2021/10/12 01:17:34;;;;;;;27.30;15.83;;;;;;;4.74;71.34;99680.11;1730389;80;21045;-55
2021/10/12 01:20:03;;;;;;;23.63;14.47;;;;;;;4.71;71.37;99676.17;1728195;80;21752;-56
2021/10/12 01:22:30;;;;;;;19.70;12.93;;;;;;;4.70;71.46;99671.75;1725054;81;21166;-56
2021/10/12 01:24:56;;;;;;;22.10;13.13;;;;;;;4.71;71.55;99670.84;1724398;81;21081;-56
2021/10/12 01:27:22;;;;;;;24.23;13.93;;;;;;;4.73;71.60;99675.69;1689333;82;21136;-56
2021/10/12 01:29:50;;;;;;;29.77;17.43;;;;;;;4.76;71.62;99672.95;1728877;80;21065;-56
2021/10/12 01:32:16;;;;;;;25.50;16.77;;;;;;;4.78;71.66;99664.43;1730029;81;20986;-56
2021/10/12 01:34:45;;;;;;;27.73;19.30;;;;;;;4.80;71.71;99659.94;1730606;80;20910;-56
2021/10/12 01:37:11;;;;;;;27.50;18.53;;;;;;;4.82;71.85;99660.78;1728813;80;20907;-56
2021/10/12 01:39:37;;;;;;;32.90;20.03;;;;;;;4.83;71.90;99661.20;1733716;80;20990;-56
2021/10/12 01:42:05;;;;;;;31.90;20.00;;;;;;;4.81;71.83;99657.69;1727476;80;20970;-56
2021/10/12 01:44:31;;;;;;;33.40;20.80;;;;;;;4.77;71.89;99660.88;1732957;80;20958;-55
2021/10/12 01:46:58;;;;;;;31.03;18.80;;;;;;;4.74;71.95;99649.44;1738820;80;22339;-55
2021/10/12 01:49:24;;;;;;;28.17;16.80;;;;;;;4.71;72.04;99657.52;1737334;80;21007;-55
2021/10/12 01:51:50;;;;;;;27.80;16.50;;;;;;;4.68;72.01;99654.95;1739939;80;20978;-55
2021/10/12 01:54:22;;;;;;;24.70;15.60;;;;;;;4.65;71.93;99651.89;1739813;80;20942;-55
2021/10/12 01:56:49;;;;;;;22.50;13.63;;;;;;;4.64;71.96;99646.59;1738178;80;21013;-55
2021/10/12 01:59:16;;;;;;;22.30;13.57;;;;;;;4.64;71.94;99648.80;1737576;80;21446;-55
2021/10/12 02:01:42;;;;;;;21.47;14.17;;;;;;;4.66;72.06;99648.77;1737386;80;21412;-55
2021/10/12 02:04:09;;;;;;;23.27;15.83;;;;;;;4.69;72.21;99654.00;1740988;80;20965;-55
2021/10/12 02:06:35;;;;;;;32.10;19.20;;;;;;;4.72;72.37;99648.60;1739161;80;20922;-55
2021/10/12 02:09:03;;;;;;;37.73;20.63;;;;;;;4.72;72.52;99642.81;1743703;80;20925;-55
2021/10/12 02:11:30;;;;;;;38.17;21.13;;;;;;;4.74;72.72;99641.45;1738707;80;21064;-55
2021/10/12 02:13:56;;;;;;;34.23;21.13;;;;;;;4.75;72.82;99637.86;1739333;80;20946;-55
2021/10/12 02:16:23;;;;;;;31.70;21.90;;;;;;;4.76;72.99;99636.95;1735457;80;21057;-55
2021/10/12 02:18:49;;;;;;;34.03;22.73;;;;;;;4.77;73.09;99634.67;1739440;80;20958;-55
2021/10/12 02:21:16;;;;;;;36.97;24.47;;;;;;;4.78;73.18;99631.09;1740357;80;20973;-54
2021/10/12 02:23:42;;;;;;;40.87;25.27;;;;;;;4.78;73.32;99626.64;1742483;80;21078;-55
2021/10/12 02:26:08;;;;;;;45.77;25.03;;;;;;;4.80;73.43;99623.48;1740257;80;20979;-55
2021/10/12 02:28:35;;;;;;;46.07;24.07;;;;;;;4.83;73.50;99619.41;1737163;80;21065;-55
2021/10/12 02:31:02;;;;;;;39.93;22.83;;;;;;;4.88;73.67;99612.60;1732656;80;21440;-55
2021/10/12 02:33:29;;;;;;;35.90;23.20;;;;;;;4.92;73.87;99617.83;1730156;80;21153;-55
2021/10/12 02:35:57;;;;;;;39.10;21.77;;;;;;;4.97;74.01;99615.02;1736545;80;21063;-55
2021/10/12 02:38:23;;;;;;;41.63;23.37;;;;;;;5.00;74.06;99612.28;1732608;80;21421;-55
2021/10/12 02:40:51;;;;;;;35.53;23.60;;;;;;;5.04;74.11;99612.59;1736720;81;21100;-55
2021/10/12 02:43:17;;;;;;;46.90;26.70;;;;;;;5.06;74.09;99609.42;1733759;80;21080;-55
2021/10/12 02:45:44;;;;;;;43.03;28.27;;;;;;;5.08;74.21;99604.05;1730782;80;21132;-55
2021/10/12 02:48:10;;;;;;;42.73;28.33;;;;;;;5.12;74.37;99603.91;1722547;81;21147;-55
2021/10/12 02:50:36;;;;;;;41.73;28.33;;;;;;;5.15;74.45;99604.29;1728391;81;21077;-55
2021/10/12 02:53:03;;;;;;;47.53;30.63;;;;;;;5.17;74.46;99600.67;1724784;81;21122;-55
2021/10/12 02:55:30;;;;;;;48.47;31.47;;;;;;;5.19;74.53;99590.80;1724717;81;21120;-55
2021/10/12 02:57:56;;;;;;;42.43;27.70;;;;;;;5.21;74.58;99595.64;1728845;81;22293;-54
2021/10/12 03:00:22;;;;;;;43.97;27.17;;;;;;;5.23;74.63;99589.81;1726265;81;21168;-55
2021/10/12 03:02:49;;;;;;;40.53;24.60;;;;;;;5.27;74.69;99584.78;1727182;81;21046;-55
2021/10/12 03:05:15;;;;;;;43.90;25.73;;;;;;;5.30;74.76;99580.70;1727434;81;21089;-55
2021/10/12 03:07:41;;;;;;;41.33;22.80;;;;;;;5.32;74.81;99585.53;1724458;81;21690;-55
2021/10/12 03:10:09;;;;;;;42.43;25.50;;;;;;;5.37;74.84;99579.17;1726157;81;21060;-55
2021/10/12 03:12:36;;;;;;;45.33;26.60;;;;;;;5.39;74.89;99580.88;1729499;81;21591;-55
2021/10/12 03:15:03;;;;;;;41.10;26.63;;;;;;;5.41;74.92;99582.17;1728887;81;21476;-55
2021/10/12 03:17:30;;;;;;;48.37;28.37;;;;;;;5.43;74.95;99581.22;1726135;81;21540;-55
2021/10/12 03:19:56;;;;;;;44.00;28.43;;;;;;;5.45;74.92;99574.47;1726744;81;21627;-55
2021/10/12 03:22:23;;;;;;;42.60;28.23;;;;;;;5.47;74.87;99575.31;1729144;80;21646;-55
2021/10/12 03:24:49;;;;;;;45.27;29.70;;;;;;;5.47;74.80;99572.64;1725231;81;21475;-55
2021/10/12 03:27:16;;;;;;;46.80;30.97;;;;;;;5.47;74.76;99566.84;1723558;81;21049;-55
2021/10/12 03:29:42;;;;;;;47.87;31.57;;;;;;;5.47;74.76;99569.97;1728053;81;21125;-55
2021/10/12 03:32:09;;;;;;;46.20;29.43;;;;;;;5.46;74.78;99574.89;1727873;80;21140;-55
2021/10/12 03:34:35;;;;;;;42.67;26.73;;;;;;;5.47;74.77;99568.63;1686790;82;21471;-55
2021/10/12 03:37:02;;;;;;;51.87;25.67;;;;;;;5.49;74.72;99562.80;1721244;80;21850;-55
2021/10/12 03:39:28;;;;;;;41.73;24.27;;;;;;;5.49;74.67;99560.13;1723792;80;21088;-55
2021/10/12 03:41:55;;;;;;;40.57;22.60;;;;;;;5.51;74.58;99558.30;1727146;80;21133;-55
2021/10/12 03:44:22;;;;;;;47.97;23.73;;;;;;;5.51;74.50;99557.83;1727581;80;21158;-55
2021/10/12 03:46:49;;;;;;;39.67;25.43;;;;;;;5.51;74.43;99559.63;1730922;81;21096;-55
2021/10/12 03:49:16;;;;;;;39.83;26.20;;;;;;;5.50;74.38;99550.74;1726142;80;21525;-55
2021/10/12 03:51:43;;;;;;;43.73;27.37;;;;;;;5.52;74.31;99550.24;1724542;81;21109;-55
2021/10/12 03:54:11;;;;;;;50.40;29.37;;;;;;;5.52;74.20;99556.92;1725142;81;21066;-55
2021/10/12 03:56:37;;;;;;;43.43;28.50;;;;;;;5.53;74.14;99559.97;1729572;80;21456;-56
2021/10/12 03:59:04;;;;;;;42.13;29.23;;;;;;;5.52;74.11;99550.70;1732632;80;20986;-55
2021/10/12 04:01:30;;;;;;;48.60;29.87;;;;;;;5.52;74.10;99554.70;1690489;82;21065;-55
2021/10/12 04:03:57;;;;;;;51.30;28.63;;;;;;;5.49;74.08;99550.78;1729809;81;21098;-55
2021/10/12 04:06:24;;;;;;;42.60;26.53;;;;;;;5.47;74.11;99555.29;1727400;81;21832;-55
2021/10/12 04:08:50;;;;;;;41.10;25.27;;;;;;;5.45;74.10;99549.11;1726146;80;21478;-55
2021/10/12 04:11:17;;;;;;;37.23;23.57;;;;;;;5.44;74.11;99546.06;1721761;80;21050;-55
2021/10/12 04:13:43;;;;;;;41.07;24.63;;;;;;;5.44;74.25;99547.39;1723123;80;21130;-55
2021/10/12 04:16:09;;;;;;;43.10;25.97;;;;;;;5.46;74.33;99545.53;1726390;80;21132;-55
2021/10/12 04:18:36;;;;;;;54.37;27.93;;;;;;;5.48;74.37;99546.36;1726379;81;21066;-55
2021/10/12 04:21:02;;;;;;;46.87;28.23;;;;;;;5.50;74.42;99540.52;1729053;80;21492;-56
2021/10/12 04:23:29;;;;;;;111.43;34.83;;;;;;;5.51;74.46;99530.27;1725332;81;21450;-55
2021/10/12 04:25:57;;;;;;;59.37;30.27;;;;;;;5.53;74.46;99539.10;1734228;81;21678;-56
2021/10/12 04:28:23;;;;;;;57.97;31.20;;;;;;;5.52;74.51;99539.56;1726691;80;22287;-55
2021/10/12 04:30:49;;;;;;;68.17;32.67;;;;;;;5.52;74.54;99536.02;1727971;81;21339;-56
2021/10/12 04:33:16;;;;;;;62.53;32.30;;;;;;;5.50;74.55;99532.52;1728516;80;21062;-55
2021/10/12 04:35:42;;;;;;;46.70;29.83;;;;;;;5.48;74.62;99525.88;1723641;81;21061;-56
2021/10/12 04:38:09;;;;;;;47.17;26.63;;;;;;;5.47;74.62;99520.13;1729686;81;22742;-55
2021/10/12 04:40:36;;;;;;;45.43;27.27;;;;;;;5.49;74.61;99524.97;1689776;83;21050;-55
2021/10/12 04:43:05;;;;;;;46.10;27.10;;;;;;;5.50;74.69;99525.38;1727160;81;21018;-55
2021/10/12 04:45:32;;;;;;;42.83;25.93;;;;;;;5.51;74.77;99521.80;1691296;83;21717;-55
2021/10/12 04:47:59;;;;;;;46.27;28.13;;;;;;;5.54;74.85;99519.00;1675489;83;21318;-55
2021/10/12 04:50:26;;;;;;;43.07;29.60;;;;;;;5.56;74.90;99518.96;1702943;82;22979;-55
2021/10/12 04:52:52;;;;;;;50.63;30.67;;;;;;;5.58;74.95;99518.00;1682630;83;21072;-55
2021/10/12 04:55:19;;;;;;;47.63;30.93;;;;;;;5.59;74.97;99514.41;1683048;82;21084;-55
2021/10/12 05:00:06;;;;;;;49.57;31.87;;;;;;;5.67;75.01;99515.04;1830492;75;26437;-56
2021/10/12 05:02:32;;;;;;;47.90;30.97;;;;;;;5.65;75.01;99517.34;1803073;78;21530;-56
2021/10/12 05:04:59;;;;;;;56.57;34.53;;;;;;;5.64;75.04;99511.13;1767069;79;21589;-56
2021/10/12 05:07:26;;;;;;;70.27;36.23;;;;;;;5.66;75.08;99509.74;1762605;78;21571;-56
2021/10/12 05:09:52;;;;;;;64.33;30.53;;;;;;;5.66;75.13;99505.28;1772276;78;21018;-56
2021/10/12 05:12:18;;;;;;;54.53;31.00;;;;;;;5.68;75.16;99508.78;1767359;78;21069;-55
2021/10/12 05:14:45;;;;;;;47.30;29.40;;;;;;;5.73;75.25;99503.73;1765711;78;21049;-56
2021/10/12 05:17:33;;;;;;;49.17;29.50;;;;;;;5.78;75.42;99503.14;1766698;78;21032;-56
2021/10/12 05:19:55;;;;;;;46.20;29.63;;;;;;;5.84;75.58;99505.60;1764491;79;21057;-56
2021/10/12 05:22:21;;;;;;;67.53;30.90;;;;;;;5.93;75.65;99504.00;1768100;78;21067;-56
2021/10/12 05:24:48;;;;;;;50.63;31.40;;;;;;;6.02;75.71;99504.57;1771409;78;21064;-56
2021/10/12 05:27:15;;;;;;;51.33;32.63;;;;;;;6.10;75.78;99507.44;1769442;79;21065;-56
2021/10/12 05:29:41;;;;;;;52.80;35.57;;;;;;;6.16;75.70;99505.42;1762651;78;21199;-56
2021/10/12 05:32:08;;;;;;;64.87;41.33;;;;;;;6.21;75.62;99506.62;1751710;78;21656;-56
2021/10/12 05:34:35;;;;;;;60.13;39.43;;;;;;;6.24;75.54;99498.47;1737424;80;21583;-56
2021/10/12 05:37:01;;;;;;;66.47;41.53;;;;;;;6.26;75.42;99502.84;1737217;80;21775;-56
2021/10/12 05:39:31;;;;;;;49.93;33.70;;;;;;;6.27;75.33;99503.27;1736191;80;21561;-56
2021/10/12 05:41:57;;;;;;;51.47;31.43;;;;;;;6.27;75.27;99501.92;1740448;80;21477;-56
2021/10/12 05:44:24;;;;;;;46.63;29.47;;;;;;;6.29;75.25;99501.88;1735209;80;21017;-56
2021/10/12 05:46:50;;;;;;;48.47;29.57;;;;;;;6.33;75.23;99506.17;1738647;80;21092;-57
2021/10/12 05:49:16;;;;;;;49.63;30.33;;;;;;;6.37;75.20;99505.16;1735707;80;21495;-56
2021/10/12 05:51:45;;;;;;;42.37;29.23;;;;;;;6.43;75.14;99496.91;1736003;80;21337;-56
2021/10/12 05:54:15;;;;;;;56.00;33.23;;;;;;;6.49;75.06;99499.81;1744739;80;21211;-56
2021/10/12 05:56:42;;;;;;;48.70;33.67;;;;;;;6.55;75.01;99500.96;1742905;80;21494;-56
2021/10/12 05:59:07;;;;;;;53.57;34.43;;;;;;;6.62;74.88;99506.49;1745268;80;21028;-56
2021/10/12 06:01:36;;;;;;;53.47;35.43;;;;;;;6.68;74.76;99504.92;1754557;80;21545;-56
2021/10/12 06:04:02;;;;;;;62.93;35.37;;;;;;;6.72;74.67;99500.73;1755411;80;21039;-56
2021/10/12 06:06:29;;;;;;;61.97;36.03;;;;;;;6.78;74.57;99499.19;1755155;80;21098;-56
2021/10/12 06:08:56;;;;;;;45.97;31.83;;;;;;;6.85;74.55;99490.46;1752768;80;21071;-56
2021/10/12 06:11:22;;;;;;;44.60;30.33;;;;;;;6.95;74.40;99496.34;1752160;80;21059;-55
2021/10/12 06:13:51;;;;;;;45.63;28.27;;;;;;;7.06;74.21;99494.98;1753021;80;21128;-56
2021/10/12 06:16:18;;;;;;;45.07;28.53;;;;;;;7.17;73.96;99490.11;1750623;80;22305;-56
2021/10/12 06:18:45;;;;;;;40.03;28.17;;;;;;;7.30;73.65;99487.84;1756071;80;21760;-56
2021/10/12 06:21:11;;;;;;;46.20;30.23;;;;;;;7.41;73.47;99486.06;1755168;80;22526;-56
2021/10/12 06:23:39;;;;;;;52.17;32.60;;;;;;;7.51;73.19;99485.64;1748638;80;21682;-56
2021/10/12 06:26:05;;;;;;;46.90;32.93;;;;;;;7.63;72.94;99480.73;1753680;80;21141;-56
2021/10/12 06:28:32;;;;;;;51.90;33.13;;;;;;;7.72;72.73;99474.54;1750783;80;21105;-57
2021/10/12 06:30:58;;;;;;;49.93;33.67;;;;;;;7.81;72.40;99482.66;1746527;80;21782;-56
2021/10/12 06:33:25;;;;;;;47.90;33.53;;;;;;;7.88;72.04;99487.70;1750705;80;21110;-56
2021/10/12 06:35:51;;;;;;;54.63;35.80;;;;;;;7.94;71.83;99479.87;1753239;80;21412;-57
2021/10/12 06:38:19;;;;;;;56.37;34.47;;;;;;;7.95;71.39;99479.81;1752384;80;21075;-56
2021/10/12 06:40:45;;;;;;;60.37;31.60;;;;;;;7.96;71.27;99481.55;1750957;80;21062;-57
2021/10/12 06:43:12;;;;;;;40.03;28.07;;;;;;;8.02;71.27;99477.73;1749445;80;21861;-56
2021/10/12 06:45:38;;;;;;;40.83;27.87;;;;;;;8.10;71.07;99475.59;1750572;80;21381;-57
2021/10/12 06:48:05;;;;;;;40.37;27.67;;;;;;;8.19;70.84;99475.20;1750663;80;20975;-56
2021/10/12 06:50:31;;;;;;;42.27;28.73;;;;;;;8.32;70.62;99477.81;1749623;80;21095;-56
2021/10/12 06:52:57;;;;;;;44.50;30.07;;;;;;;8.44;70.62;99474.17;1750940;80;22617;-56
2021/10/12 06:55:26;;;;;;;50.10;32.50;;;;;;;8.56;70.53;99477.20;1750720;80;22100;-56
2021/10/12 06:57:53;;;;;;;42.77;29.10;;;;;;;8.66;70.27;99474.52;1752441;80;21049;-56
2021/10/12 07:00:19;;;;;;;51.10;32.93;;;;;;;8.73;69.97;99473.30;1749176;80;21169;-57
2021/10/12 07:02:46;;;;;;;46.30;31.00;;;;;;;8.80;69.76;99471.20;1749463;80;21137;-56
2021/10/12 07:05:14;;;;;;;46.13;29.97;;;;;;;8.87;69.53;99472.66;1754431;80;21086;-57
2021/10/12 07:07:40;;;;;;;38.97;27.70;;;;;;;8.93;69.36;99471.53;1752685;80;21142;-56
2021/10/12 07:10:10;;;;;;;48.90;28.97;;;;;;;8.99;69.14;99469.42;1750856;80;21496;-57
2021/10/12 07:12:36;;;;;;;36.07;24.13;;;;;;;9.06;68.97;99465.50;1748525;80;21473;-56
2021/10/12 07:15:04;;;;;;;38.03;23.20;;;;;;;9.15;68.68;99465.55;1752725;80;21108;-57
2021/10/12 07:17:32;;;;;;;36.70;25.07;;;;;;;9.26;68.09;99463.23;1755949;80;21532;-56
2021/10/12 07:19:58;;;;;;;31.90;22.30;;;;;;;9.36;67.98;99457.80;1757723;80;21481;-57
2021/10/12 07:22:25;;;;;;;37.67;25.23;;;;;;;9.47;68.08;99454.13;1757429;80;21560;-56
2021/10/12 07:24:52;;;;;;;34.27;24.00;;;;;;;9.59;67.95;99455.84;1757876;80;20991;-57
2021/10/12 07:27:18;;;;;;;47.07;27.77;;;;;;;9.72;67.81;99452.93;1755388;80;21517;-57
2021/10/12 07:29:50;;;;;;;33.60;22.67;;;;;;;9.86;67.24;99442.38;1758322;80;21517;-57
2021/10/12 07:32:16;;;;;;;34.75;23.65;;;;;;;10.00;66.79;99453.77;1759593;80;22455;-57
2021/10/12 07:34:43;;;;;;;39.60;22.07;;;;;;;10.12;66.31;99456.70;1760313;80;21039;-57
2021/10/12 07:37:10;;;;;;;31.12;21.57;;;;;;;10.24;65.87;99452.55;1752061;80;21139;-56
2021/10/12 07:39:36;;;;;;;31.15;21.95;;;;;;;10.34;65.54;99446.22;1750405;80;21141;-57
2021/10/12 07:42:07;;;;;;;28.42;20.05;;;;;;;10.43;65.20;99443.92;1747319;80;21101;-56
2021/10/12 07:44:32;;;;;;;30.57;21.52;;;;;;;10.53;64.91;99446.53;1750363;80;21141;-55
2021/10/12 07:46:58;;;;;;;32.25;22.15;;;;;;;10.62;64.73;99434.41;1750214;80;20944;-57
2021/10/12 07:49:25;;;;;;;32.93;20.65;;;;;;;10.71;64.50;99438.43;1756850;80;20963;-57
2021/10/12 07:51:51;;;;;;;34.20;21.40;;;;;;;10.82;64.31;99430.63;1752908;80;20999;-57
2021/10/12 07:54:25;;;;;;;27.67;18.67;;;;;;;10.91;64.01;99432.81;1748524;80;20927;-57
2021/10/12 07:56:46;;;;;;;30.35;20.88;;;;;;;10.97;63.70;99430.65;1757298;80;21860;-57
2021/10/12 07:59:12;;;;;;;29.10;19.85;;;;;;;11.07;63.52;99430.14;1750792;80;21932;-57
2021/10/12 08:01:39;;;;;;;29.15;19.87;;;;;;;11.15;63.37;99432.81;1741289;80;20966;-57
2021/10/12 08:04:05;;;;;;;26.27;18.55;;;;;;;11.22;63.02;99422.11;1739942;80;21420;-57
2021/10/12 08:06:32;;;;;;;30.52;20.27;;;;;;;11.30;62.92;99423.02;1737337;80;20969;-57
2021/10/12 08:08:59;;;;;;;32.70;21.70;;;;;;;11.38;62.67;99425.67;1738454;80;22443;-57
2021/10/12 08:11:25;;;;;;;29.48;20.68;;;;;;;11.48;62.62;99410.33;1740911;80;21444;-57
2021/10/12 08:13:55;;;;;;;33.33;23.18;;;;;;;11.57;62.44;99411.16;1737998;80;21702;-57
2021/10/12 08:16:26;;;;;;;28.38;19.67;;;;;;;11.65;62.40;99401.63;1739345;80;20924;-57
2021/10/12 08:18:50;;;;;;;31.65;21.00;;;;;;;11.75;62.23;99393.91;1740007;80;20997;-57
2021/10/12 08:21:16;;;;;;;36.30;21.25;;;;;;;11.84;61.69;99392.50;1743411;80;21073;-57
2021/10/12 08:23:43;;;;;;;32.83;21.60;;;;;;;11.91;61.60;99393.40;1739326;80;21063;-57
2021/10/12 08:26:09;;;;;;;30.23;21.23;;;;;;;11.99;60.97;99396.51;1742046;80;21104;-57
2021/10/12 08:28:35;;;;;;;29.72;19.95;;;;;;;12.03;60.86;99391.33;1747363;80;20989;-57
2021/10/12 08:31:02;;;;;;;32.63;20.00;;;;;;;12.12;60.71;99381.34;1737240;80;21547;-57
2021/10/12 08:33:28;;;;;;;22.25;16.77;;;;;;;12.19;60.30;99383.18;1688483;82;21530;-57
2021/10/12 08:35:55;;;;;;;25.50;18.73;;;;;;;12.25;60.01;99376.05;1739787;79;21391;-57
2021/10/12 08:38:21;;;;;;;28.70;18.45;;;;;;;12.28;59.65;99377.22;1743986;79;21037;-57
2021/10/12 08:40:48;;;;;;;32.05;19.00;;;;;;;12.32;59.45;99367.13;1740100;79;20996;-57
2021/10/12 08:43:14;;;;;;;28.75;20.70;;;;;;;12.37;59.31;99368.56;1740336;79;21056;-57
2021/10/12 08:45:41;;;;;;;29.98;20.08;;;;;;;12.40;58.92;99364.81;1742934;79;21048;-57
2021/10/12 08:48:07;;;;;;;26.20;17.12;;;;;;;12.39;58.98;99365.78;1697080;81;20956;-57
2021/10/12 08:50:33;;;;;;;23.80;17.77;;;;;;;12.41;58.69;99359.81;1747188;79;20851;-58
2021/10/12 08:53:03;;;;;;;22.82;17.52;;;;;;;12.41;58.72;99355.28;1740171;80;21052;-57
2021/10/12 08:55:29;;;;;;;26.55;17.62;;;;;;;12.44;58.85;99355.55;1736260;79;21064;-56
2021/10/12 08:57:56;;;;;;;20.32;16.45;;;;;;;12.50;58.72;99349.28;1742680;79;21175;-57
2021/10/12 09:00:28;;;;;;;22.05;17.10;;;;;;;12.57;58.34;99351.63;1746144;79;21132;-57
2021/10/12 09:05:59;;;;;;;25.88;15.23;;;;;;;12.65;58.20;99344.78;1748937;80;21353;-57
2021/10/12 09:08:29;;;;;;;20.20;13.50;;;;;;;12.71;58.03;99339.46;1751467;80;21181;-56
2021/10/12 09:10:57;;;;;;;17.30;9.28;;;;;;;12.78;57.88;99338.09;1750612;80;21133;-57
2021/10/12 09:13:24;;;;;;;14.53;8.63;;;;;;;12.83;57.50;99328.77;1740776;80;20951;-57
2021/10/12 09:16:05;;;;;;;16.05;6.22;;;;;;;12.92;57.24;99332.70;1754252;80;21078;-57
2021/10/12 09:18:56;;;;;;;21.97;8.40;;;;;;;13.00;56.52;99332.20;1754363;80;20995;-57
2021/10/12 09:21:31;;;;;;;19.20;12.95;;;;;;;13.07;56.18;99324.08;1747180;80;21099;-57
2021/10/12 09:24:17;;;;;;;18.30;10.35;;;;;;;13.15;56.32;99317.24;1732250;80;22646;-57
2021/10/12 09:27:02;;;;;;;12.82;7.40;;;;;;;13.22;56.21;99318.56;1747919;80;21087;-57
2021/10/12 09:29:33;;;;;;;6.47;5.87;;;;;;;13.31;56.02;99317.58;1754175;80;21099;-58
2021/10/12 09:31:58;;;;;;;9.48;6.60;;;;;;;13.37;55.98;99308.56;1748653;80;21744;-57
2021/10/12 09:34:25;;;;;;;11.35;7.45;;;;;;;13.45;55.73;99305.34;1753007;80;21066;-58
2021/10/12 09:36:52;;;;;;;11.15;8.55;;;;;;;13.51;55.51;99304.96;1755828;80;21137;-57
2021/10/12 09:39:32;;;;;;;16.20;8.78;;;;;;;13.56;55.39;99300.09;1754442;80;21059;-58
2021/10/12 09:42:05;;;;;;;15.78;10.48;;;;;;;13.62;55.24;99296.97;1750778;80;21460;-57
2021/10/12 09:44:33;;;;;;;;;;;;;;;13.68;54.57;99291.16;1756774;80;20995;-58
2021/10/12 09:47:13;;;;;;;13.03;7.95;;;;;;;13.75;54.11;99290.25;1758691;80;20439;-57
2021/10/12 09:49:43;;;;;;;14.70;7.12;;;;;;;13.78;54.10;99289.54;1753239;80;21136;-56
2021/10/12 09:52:17;;;;;;;10.80;6.97;;;;;;;13.83;54.01;99290.11;1754563;80;21010;-56
2021/10/12 09:54:52;;;;;;;21.20;8.23;;;;;;;13.86;53.78;99278.22;1748927;80;21138;-57
2021/10/12 09:57:17;;;;;;;8.60;5.92;;;;;;;13.87;53.77;99282.14;1749367;80;21122;-56
2021/10/12 09:59:44;;;;;;;9.85;6.17;;;;;;;13.90;53.73;99268.91;1751424;80;21165;-57
2021/10/12 10:02:16;;;;;;;8.85;5.60;;;;;;;13.91;53.79;99266.58;1738281;80;21971;-58
2021/10/12 10:04:43;;;;;;;13.35;6.78;;;;;;;13.93;54.07;99267.34;1735476;80;20965;-57
2021/10/12 10:07:23;;;;;;;9.00;6.95;;;;;;;13.97;54.09;99267.50;1733276;80;21096;-55
2021/10/12 10:09:54;;;;;;;7.70;5.17;;;;;;;13.99;53.66;99257.44;1733029;80;21096;-56
2021/10/12 10:12:21;;;;;;;6.67;5.78;;;;;;;14.00;53.73;99255.98;1734069;80;21477;-57
2021/10/12 10:14:48;;;;;;;10.38;5.22;;;;;;;14.03;53.84;99256.75;1736414;80;21760;-56
2021/10/12 10:17:16;;;;;;;10.13;4.17;;;;;;;14.07;54.13;99255.55;1735662;80;21060;-57
2021/10/12 10:19:46;;;;;;;7.37;4.53;;;;;;;14.09;53.98;99257.18;1736017;80;21076;-57
2021/10/12 10:22:50;;;;;;;5.67;4.85;;;;;;;14.11;53.82;99248.48;1737664;80;21358;-58
2021/10/12 10:25:32;;;;;;;8.33;5.90;;;;;;;14.12;53.53;99246.64;1736545;80;21107;-57
2021/10/12 10:28:22;;;;;;;10.85;5.60;;;;;;;14.13;53.38;99246.50;1735000;80;21144;-56
2021/10/12 10:30:57;;;;;;;9.38;6.58;;;;;;;14.17;53.29;99238.56;1733233;80;21333;-57
2021/10/12 10:33:34;;;;;;;7.12;5.78;;;;;;;14.19;53.11;99239.81;1741003;80;21104;-58
2021/10/12 10:36:07;;;;;;;17.10;6.92;;;;;;;14.20;53.04;99240.19;1737030;80;20926;-57
2021/10/12 10:38:43;;;;;;;7.45;5.62;;;;;;;14.20;52.69;99232.94;1741324;80;20941;-58
2021/10/12 10:41:19;;;;;;;10.40;7.05;;;;;;;14.23;52.67;99228.64;1738873;81;21697;-57
2021/10/12 10:44:00;;;;;;;16.17;7.22;;;;;;;14.25;52.64;99229.41;1738050;81;20894;-57
2021/10/12 10:46:38;;;;;;;12.07;5.53;;;;;;;14.26;52.59;99225.73;1737818;81;20969;-57
2021/10/12 10:49:23;;;;;;;7.80;5.58;;;;;;;14.27;52.27;99225.23;1735233;81;20890;-57
2021/10/12 10:52:05;;;;;;;7.10;4.12;;;;;;;14.25;51.89;99225.83;1739575;81;21435;-58
2021/10/12 10:54:47;;;;;;;10.30;6.28;;;;;;;14.22;52.09;99222.84;1738390;81;22126;-59
2021/10/12 10:57:19;;;;;;;12.00;7.03;;;;;;;14.20;52.19;99213.99;1739820;80;20953;-58
2021/10/12 10:59:46;;;;;;;9.73;6.00;;;;;;;14.20;52.19;99213.99;1741459;81;20990;-57
2021/10/12 11:02:36;;;;;;;9.23;5.33;;;;;;;14.19;51.89;99211.39;1748345;80;20984;-58
2021/10/12 11:05:03;;;;;;;8.40;4.80;;;;;;;14.20;52.17;99206.36;1741087;81;20981;-58
2021/10/12 11:07:30;;;;;;;7.67;4.97;;;;;;;14.21;51.84;99206.70;1744872;81;21053;-57
2021/10/12 11:09:57;;;;;;;6.95;5.53;;;;;;;14.22;51.70;99207.09;1748461;81;20970;-57
2021/10/12 11:12:28;;;;;;;7.28;5.95;;;;;;;14.24;51.86;99205.14;1742959;79;21439;-58
2021/10/12 11:15:08;;;;;;;11.18;6.12;;;;;;;14.26;51.58;99206.77;1746546;81;20901;-59
2021/10/12 11:17:36;;;;;;;16.25;5.72;;;;;;;14.27;51.49;99201.74;1746658;81;20945;-58
2021/10/12 11:20:07;;;;;;;8.75;5.80;;;;;;;14.28;51.51;99199.41;1739670;81;21159;-58
2021/10/12 11:22:40;;;;;;;8.50;4.67;;;;;;;14.28;51.41;99199.41;1742666;81;21119;-56
2021/10/12 11:25:06;;;;;;;8.98;5.00;;;;;;;14.28;51.40;99194.48;1720533;81;20929;-59
2021/10/12 11:27:45;;;;;;;8.85;5.03;;;;;;;14.27;51.13;99190.05;1743346;81;20997;-58
2021/10/12 11:30:13;;;;;;;13.18;5.95;;;;;;;14.27;51.13;99190.05;1744146;81;21419;-58
2021/10/12 11:32:40;;;;;;;12.40;5.92;;;;;;;14.26;51.46;99191.89;1744074;81;21058;-57
2021/10/12 11:35:09;;;;;;;6.87;5.50;;;;;;;14.24;51.62;99195.19;1741487;81;20945;-58